Time;durP1;ratioP1;P1;durP2;ratioP2;P2;SDS_P1;SDS_P2;PMS_P1;PMS_P2;Temp;Humidity;BMP_temperature;BMP_pressure;BME280_temperature;BME280_humidity;BME280_pressure;Samples;Min_cycle;Max_cycle;Signal;HPM_P1;HPM_P2
2024/01/09 00:01:02;;;;;;;2.08;1.20;;;9.90;96.70;;;;;;5056371;28;20159;-75
2024/01/09 00:03:33;;;;;;;2.88;1.52;;;10.00;96.70;;;;;;5061059;28;20059;-74
2024/01/09 00:06:04;;;;;;;3.17;1.05;;;10.00;96.70;;;;;;5043501;28;20053;-75
2024/01/09 00:08:48;;;;;;;3.70;1.20;;;9.90;96.70;;;;;;5056823;28;20060;-75
2024/01/09 00:12:18;;;;;;;;;;;;;;;;;;;;;
2024/01/09 00:15:38;;;;;;;1.55;1.13;;;9.90;96.70;;;;;;5057403;28;20070;-75
2024/01/09 00:18:08;;;;;;;4.55;1.40;;;9.90;96.70;;;;;;5055622;28;20045;-75
2024/01/09 00:20:39;;;;;;;3.67;1.33;;;9.90;96.70;;;;;;5065369;28;20442;-75
2024/01/09 00:23:13;;;;;;;2.20;1.38;;;10.00;96.70;;;;;;5052941;28;20048;-75
2024/01/09 00:25:43;;;;;;;2.47;1.50;;;10.00;96.70;;;;;;5039882;28;20061;-75
2024/01/09 00:28:28;;;;;;;2.95;1.70;;;9.90;96.70;;;;;;5048153;28;20052;-75
2024/01/09 00:30:57;;;;;;;2.60;1.63;;;9.90;96.70;;;;;;5070952;28;20056;-75
2024/01/09 00:33:26;;;;;;;2.85;1.70;;;9.90;96.70;;;;;;5084665;28;20067;-75
2024/01/09 00:35:56;;;;;;;2.15;1.55;;;9.90;96.70;;;;;;5083710;28;20467;-75
2024/01/09 00:38:27;;;;;;;2.67;1.70;;;9.80;96.70;;;;;;5086115;28;20064;-75
2024/01/09 00:40:59;;;;;;;2.00;1.40;;;9.80;96.70;;;;;;5080149;28;20683;-76
2024/01/09 00:43:32;;;;;;;2.33;1.60;;;9.80;96.70;;;;;;5079174;28;20398;-75
2024/01/09 00:46:01;;;;;;;3.97;1.70;;;9.70;96.70;;;;;;5067530;28;20232;-75
2024/01/09 00:48:31;;;;;;;2.08;1.50;;;9.70;96.70;;;;;;5083120;28;20095;-75
2024/01/09 00:51:03;;;;;;;2.17;1.40;;;9.70;96.70;;;;;;5067110;28;20110;-75
2024/01/09 00:53:33;;;;;;;4.80;1.85;;;9.80;96.70;;;;;;5066844;28;20517;-75
2024/01/09 00:56:03;;;;;;;2.28;1.52;;;9.80;96.70;;;;;;5087500;28;20086;-75
2024/01/09 00:58:32;;;;;;;2.13;1.58;;;9.80;96.70;;;;;;5066616;28;20063;-75
2024/01/09 01:01:00;;;;;;;3.20;1.63;;;9.80;96.70;;;;;;5073408;28;20549;-75
2024/01/09 01:03:32;;;;;;;3.60;1.73;;;9.70;96.70;;;;;;5085114;28;20071;-75
2024/01/09 01:06:02;;;;;;;2.08;1.50;;;9.70;96.70;;;;;;5087472;28;20059;-75
2024/01/09 01:08:34;;;;;;;3.15;1.65;;;9.60;96.70;;;;;;5090603;28;20067;-75
2024/01/09 01:11:05;;;;;;;3.67;1.58;;;9.60;96.70;;;;;;5081890;28;20056;-75
2024/01/09 01:13:34;;;;;;;2.20;1.70;;;9.60;96.70;;;;;;5087615;28;20451;-74
2024/01/09 01:16:05;;;;;;;2.20;1.60;;;9.60;96.70;;;;;;5087537;28;20052;-75
2024/01/09 01:18:47;;;;;;;2.05;1.50;;;9.60;96.70;;;;;;5086937;28;20157;-74
2024/01/09 01:21:15;;;;;;;3.85;1.75;;;9.60;96.70;;;;;;5093408;28;20059;-74
2024/01/09 01:23:46;;;;;;;3.25;1.83;;;9.60;96.70;;;;;;5088705;28;20048;-74
2024/01/09 01:26:15;;;;;;;2.35;1.58;;;9.50;96.70;;;;;;5088445;28;20048;-74
2024/01/09 01:28:43;;;;;;;2.10;1.52;;;9.50;96.70;;;;;;5069550;28;20135;-74
2024/01/09 01:31:21;;;;;;;3.25;1.60;;;9.40;96.70;;;;;;5089500;28;20143;-74
2024/01/09 01:33:50;;;;;;;3.85;1.98;;;9.40;96.70;;;;;;5060779;28;20052;-75
2024/01/09 01:36:19;;;;;;;2.75;1.55;;;9.50;96.70;;;;;;5090901;28;20060;-75
2024/01/09 01:38:50;;;;;;;2.55;1.55;;;9.30;96.70;;;;;;5090652;28;20123;-75
2024/01/09 01:41:25;;;;;;;4.80;1.80;;;9.20;96.70;;;;;;5087969;28;20079;-75
2024/01/09 01:44:13;;;;;;;2.40;1.50;;;9.30;96.70;;;;;;5060080;28;20052;-75
2024/01/09 01:46:48;;;;;;;2.40;1.48;;;9.30;96.70;;;;;;5076969;28;20078;-75
2024/01/09 01:49:24;;;;;;;3.08;1.60;;;9.30;96.70;;;;;;5087720;28;20106;-75
2024/01/09 01:51:53;;;;;;;3.70;1.80;;;9.20;96.70;;;;;;5082090;28;20067;-75
2024/01/09 01:54:24;;;;;;;2.75;1.50;;;9.30;96.70;;;;;;5069552;28;20071;-75
2024/01/09 01:56:54;;;;;;;2.42;1.48;;;9.30;96.70;;;;;;5088077;28;20052;-75
2024/01/09 01:59:25;;;;;;;2.80;1.58;;;9.30;96.70;;;;;;5092237;28;20079;-75
2024/01/09 02:01:54;;;;;;;3.22;1.90;;;9.30;96.70;;;;;;5086594;28;20056;-75
2024/01/09 02:04:28;;;;;;;2.63;2.00;;;9.30;96.70;;;;;;5087617;28;20082;-76
2024/01/09 02:07:06;;;;;;;3.30;1.90;;;9.30;96.70;;;;;;5084409;28;20130;-75
2024/01/09 02:09:40;;;;;;;2.30;1.90;;;9.30;96.70;;;;;;5086356;28;20056;-75
2024/01/09 02:12:11;;;;;;;2.05;1.55;;;9.20;96.70;;;;;;5087856;28;20064;-75
2024/01/09 02:14:40;;;;;;;3.15;2.03;;;9.10;96.70;;;;;;5070802;28;20056;-75
2024/01/09 02:17:45;;;;;;;2.70;1.95;;;9.10;96.70;;;;;;4982112;28;20056;-75
2024/01/09 02:20:14;;;;;;;3.92;2.20;;;9.20;96.70;;;;;;5075489;28;20133;-74
2024/01/09 02:23:02;;;;;;;4.18;1.83;;;9.10;96.70;;;;;;5087590;28;20409;-75
2024/01/09 02:25:33;;;;;;;3.22;1.92;;;9.00;96.70;;;;;;5084714;28;20508;-74
2024/01/09 02:28:09;;;;;;;2.53;1.95;;;9.00;96.70;;;;;;5087547;28;20138;-74
2024/01/09 02:31:10;;;;;;;3.58;2.08;;;9.00;96.70;;;;;;5087313;28;20117;-74
2024/01/09 02:33:41;;;;;;;3.78;1.98;;;8.90;96.70;;;;;;5074824;28;20068;-75
2024/01/09 02:36:22;;;;;;;2.75;1.90;;;8.80;96.70;;;;;;5087548;28;20472;-74
2024/01/09 02:38:52;;;;;;;3.28;2.15;;;8.90;96.70;;;;;;5087334;28;20048;-75
2024/01/09 02:41:24;;;;;;;3.20;1.60;;;8.90;96.70;;;;;;5068425;28;20062;-74
2024/01/09 02:43:55;;;;;;;3.17;1.60;;;9.00;96.70;;;;;;5061572;28;20052;-74
2024/01/09 02:46:38;;;;;;;2.75;1.63;;;9.00;96.70;;;;;;5035960;28;20062;-74
2024/01/09 02:50:17;;;;;;;;;;;;;;;;;;;;;
2024/01/09 02:53:07;;;;;;;2.83;1.60;;;9.00;96.70;;;;;;4984537;28;20093;-74
2024/01/09 02:55:37;;;;;;;3.28;1.42;;;9.00;96.70;;;;;;4984655;28;20086;-75
2024/01/09 02:58:09;;;;;;;2.80;1.48;;;9.00;96.70;;;;;;4983594;28;20144;-75
2024/01/09 03:00:41;;;;;;;3.08;1.35;;;8.90;96.70;;;;;;4984400;28;20655;-75
2024/01/09 03:03:15;;;;;;;3.85;1.55;;;9.00;96.70;;;;;;4984063;28;20050;-74
2024/01/09 03:09:05;;;;;;;1.95;1.38;;;8.90;96.70;;;;;;4990693;28;20071;-75
2024/01/09 03:11:46;;;;;;;2.33;1.45;;;8.90;96.70;;;;;;4970782;28;20169;-74
2024/01/09 03:14:58;;;;;;;;;;;;;;;;;;;;;
2024/01/09 03:18:00;;;;;;;1.65;1.30;;;8.80;96.70;;;;;;4984573;28;20062;-74
2024/01/09 03:24:53;;;;;;;2.58;1.30;;;9.00;96.70;;;;;;4890394;29;20115;-75
2024/01/09 03:27:26;;;;;;;2.10;1.20;;;9.00;96.70;;;;;;4967840;28;20053;-75
2024/01/09 03:30:35;;;;;;;2.20;1.42;;;9.00;96.70;;;;;;5036414;28;20110;-74
2024/01/09 03:33:07;;;;;;;5.70;1.48;;;9.00;96.70;;;;;;5044025;28;20076;-74
2024/01/09 03:35:39;;;;;;;2.58;1.50;;;9.00;96.70;;;;;;5040414;28;20081;-75
2024/01/09 03:38:10;;;;;;;3.28;1.15;;;9.00;96.70;;;;;;5043787;28;20090;-75
2024/01/09 03:40:55;;;;;;;1.63;1.23;;;9.00;96.70;;;;;;5039725;28;20053;-74
2024/01/09 03:43:25;;;;;;;2.40;1.17;;;9.00;96.70;;;;;;5037874;28;20060;-75
2024/01/09 03:45:57;;;;;;;1.95;1.15;;;9.00;96.70;;;;;;5050632;28;20531;-75
2024/01/09 03:49:35;;;;;;;1.98;1.20;;;9.00;96.70;;;;;;5050059;28;20056;-75
2024/01/09 03:59:45;;;;;;;2.83;1.58;;;9.00;96.70;;;;;;5050060;28;20112;-75
2024/01/09 04:02:14;;;;;;;3.03;1.70;;;9.00;96.70;;;;;;5038775;28;20084;-75
2024/01/09 04:05:27;;;;;;;2.30;1.60;;;9.00;96.70;;;;;;5053734;28;20064;-75
2024/01/09 04:08:00;;;;;;;2.28;1.50;;;9.00;96.70;;;;;;5038356;28;20152;-75
2024/01/09 04:10:39;;;;;;;;;;;;;;;;;;;;;
2024/01/09 04:13:23;;;;;;;2.28;1.52;;;8.90;96.70;;;;;;5022696;28;20057;-74
2024/01/09 04:15:53;;;;;;;3.35;1.80;;;8.90;96.70;;;;;;5054416;28;20048;-75
2024/01/09 04:18:39;;;;;;;3.33;1.83;;;8.90;96.70;;;;;;5045940;28;20060;-74
2024/01/09 04:21:10;;;;;;;2.10;1.70;;;8.90;96.70;;;;;;5052392;28;20101;-75
2024/01/09 04:23:58;;;;;;;;;;;;;;;;;;;;;
2024/01/09 04:26:28;;;;;;;2.53;1.70;;;8.90;96.70;;;;;;5048108;28;20057;-75
2024/01/09 04:29:06;;;;;;;2.60;1.77;;;8.80;96.70;;;;;;5045745;28;20064;-75
2024/01/09 04:32:01;;;;;;;;;;;;;;;;;;;;;
2024/01/09 04:35:27;;;;;;;4.25;1.50;;;8.70;96.70;;;;;;5024268;28;20530;-74
2024/01/09 04:38:00;;;;;;;2.58;1.40;;;8.70;96.70;;;;;;5046153;28;20065;-75
2024/01/09 04:44:24;;;;;;;2.42;1.50;;;8.80;96.70;;;;;;4917390;29;20519;-74
2024/01/09 04:46:59;;;;;;;2.85;1.77;;;8.80;96.70;;;;;;4946540;28;20063;-75
2024/01/09 04:53:57;;;;;;;4.78;1.98;;;8.70;96.70;;;;;;4940572;28;20042;-74
2024/01/09 04:56:33;;;;;;;3.72;1.65;;;8.70;96.70;;;;;;4945721;28;20063;-74
2024/01/09 04:59:12;;;;;;;4.85;1.70;;;8.70;96.70;;;;;;4935226;28;20515;-74
2024/01/09 05:01:41;;;;;;;3.08;1.50;;;8.60;96.70;;;;;;4947001;28;20150;-74
2024/01/09 05:12:48;;;;;;;2.85;1.67;;;8.50;96.70;;;;;;4939339;28;20150;-74
2024/01/09 05:16:40;;;;;;;2.08;1.48;;;8.50;96.70;;;;;;4951884;28;20105;-74
2024/01/09 05:19:13;;;;;;;2.75;1.58;;;8.60;96.70;;;;;;4951627;28;20058;-74
2024/01/09 05:22:28;;;;;;;2.15;1.30;;;8.60;96.70;;;;;;5059865;28;20189;-74
2024/01/09 05:25:45;;;;;;;2.22;1.48;;;8.60;96.70;;;;;;4985651;28;20078;-75
2024/01/09 05:28:56;;;;;;;3.05;1.83;;;8.50;96.70;;;;;;4980522;28;20101;-74
2024/01/09 05:31:26;;;;;;;4.10;1.73;;;8.30;96.70;;;;;;4987718;28;20062;-74
2024/01/09 05:34:06;;;;;;;3.53;1.55;;;8.30;96.70;;;;;;4989854;28;20068;-74
2024/01/09 05:36:44;;;;;;;3.20;1.58;;;8.30;96.70;;;;;;4984892;28;20157;-74
2024/01/09 05:39:51;;;;;;;4.10;1.83;;;8.40;96.70;;;;;;4967989;28;20069;-74
2024/01/09 05:42:22;;;;;;;2.42;1.60;;;8.40;96.70;;;;;;4977526;28;20065;-74
2024/01/09 05:45:04;;;;;;;2.83;1.85;;;8.30;96.70;;;;;;4988317;28;20069;-74
2024/01/09 05:49:07;;;;;;;;;;;;;;;;;;;;;
2024/01/09 05:52:06;;;;;;;;;;;;;;;;;;;;;
2024/01/09 05:54:46;;;;;;;2.60;1.80;;;8.30;96.70;;;;;;5073527;28;20066;-74
2024/01/09 05:57:16;;;;;;;3.88;2.00;;;8.30;96.70;;;;;;5088618;28;20056;-74
2024/01/09 06:00:18;;;;;;;;;;;;;;;;;;;;;
2024/01/09 06:03:32;;;;;;;5.10;2.80;;;8.40;96.70;;;;;;5044546;28;20061;-75
2024/01/09 06:06:02;;;;;;;3.85;2.70;;;8.30;96.70;;;;;;5044884;28;20060;-74
2024/01/09 06:11:30;;;;;;;3.72;2.13;;;8.30;96.70;;;;;;5043936;28;20061;-74
2024/01/09 06:14:00;;;;;;;4.57;3.28;;;8.30;96.70;;;;;;5044838;28;20095;-74
2024/01/09 06:17:12;;;;;;;4.10;1.85;;;8.40;96.70;;;;;;5044555;28;20056;-74
2024/01/09 06:20:51;;;;;;;4.18;1.98;;;8.40;96.70;;;;;;5043373;28;20056;-74
2024/01/09 06:23:26;;;;;;;2.83;1.80;;;8.40;96.70;;;;;;5039827;28;20091;-74
2024/01/09 06:26:12;;;;;;;2.67;1.63;;;8.40;96.70;;;;;;5044196;28;20570;-74
2024/01/09 06:28:43;;;;;;;1.98;1.50;;;8.40;96.70;;;;;;5027615;28;20171;-74
2024/01/09 06:31:15;;;;;;;2.67;1.73;;;8.40;96.70;;;;;;5044480;28;20065;-74
2024/01/09 06:33:44;;;;;;;3.00;1.70;;;8.40;96.70;;;;;;5064609;28;20064;-74
2024/01/09 06:36:14;;;;;;;2.83;2.17;;;8.40;96.70;;;;;;5089972;28;20052;-74
2024/01/09 06:39:12;;;;;;;3.33;2.30;;;8.30;96.70;;;;;;5083947;28;20609;-74
2024/01/09 06:41:41;;;;;;;3.22;1.98;;;8.40;96.70;;;;;;5086925;28;20580;-74
2024/01/09 06:44:11;;;;;;;3.50;1.88;;;8.40;96.70;;;;;;5087113;28;20044;-74
2024/01/09 06:46:40;;;;;;;3.20;1.73;;;8.40;96.70;;;;;;5087044;28;20159;-74
2024/01/09 06:49:47;;;;;;;3.28;2.00;;;8.30;96.70;;;;;;5082779;28;20052;-74
2024/01/09 06:52:24;;;;;;;3.08;1.80;;;8.30;96.70;;;;;;5038267;28;20056;-74
2024/01/09 06:54:54;;;;;;;2.40;1.90;;;8.40;96.70;;;;;;5086993;28;20139;-74
2024/01/09 06:57:23;;;;;;;3.50;1.80;;;8.40;96.70;;;;;;5086514;28;20095;-74
2024/01/09 06:59:52;;;;;;;2.58;1.30;;;8.40;96.70;;;;;;5068936;28;20052;-74
2024/01/09 07:02:21;;;;;;;2.22;1.80;;;8.40;96.70;;;;;;5087037;28;20056;-74
2024/01/09 07:04:57;;;;;;;3.17;1.70;;;8.40;96.70;;;;;;5065390;28;20060;-74
2024/01/09 07:08:26;;;;;;;3.35;1.90;;;8.50;96.70;;;;;;5046225;28;20480;-74
2024/01/09 07:10:56;;;;;;;1.90;1.45;;;8.50;96.70;;;;;;5086917;28;20704;-74
2024/01/09 07:13:27;;;;;;;3.75;1.77;;;8.50;96.70;;;;;;5086341;28;20563;-74
2024/01/09 07:15:57;;;;;;;2.08;1.52;;;8.60;96.70;;;;;;5068856;28;20794;-74
2024/01/09 07:18:27;;;;;;;2.10;1.60;;;8.60;96.70;;;;;;5086912;28;20052;-74
2024/01/09 07:20:56;;;;;;;2.05;1.77;;;8.60;96.70;;;;;;5068496;28;20567;-74
2024/01/09 07:23:27;;;;;;;2.67;1.58;;;8.60;96.70;;;;;;5086105;28;20052;-74
2024/01/09 07:25:56;;;;;;;3.05;2.03;;;8.70;96.70;;;;;;5086428;28;20052;-73
2024/01/09 07:29:10;;;;;;;2.42;1.73;;;8.70;96.70;;;;;;5086112;28;20870;-74
2024/01/09 07:31:53;;;;;;;3.33;1.52;;;8.70;96.70;;;;;;5059108;28;20056;-74
2024/01/09 07:34:21;;;;;;;2.88;1.80;;;8.70;96.70;;;;;;5086273;28;20577;-74
2024/01/09 07:36:52;;;;;;;2.38;1.63;;;8.70;96.70;;;;;;5084331;28;20718;-74
2024/01/09 07:39:22;;;;;;;3.13;1.73;;;8.80;96.70;;;;;;5091682;28;20504;-73
2024/01/09 07:41:54;;;;;;;2.25;1.40;;;8.90;96.70;;;;;;5085338;28;20064;-72
2024/01/09 07:44:23;;;;;;;3.78;1.55;;;8.90;96.70;;;;;;5067115;28;20098;-73
2024/01/09 07:46:51;;;;;;;2.38;1.33;;;8.90;96.70;;;;;;5081239;28;20058;-73
2024/01/09 07:49:19;;;;;;;2.22;1.25;;;8.90;96.70;;;;;;5088720;28;20044;-74
2024/01/09 07:51:48;;;;;;;3.22;1.67;;;9.00;96.70;;;;;;5082543;28;20573;-76
2024/01/09 07:54:18;;;;;;;2.95;1.27;;;9.00;96.70;;;;;;5088699;28;20098;-76
2024/01/09 07:56:50;;;;;;;2.35;1.70;;;9.00;96.70;;;;;;5067300;28;20051;-75
2024/01/09 07:59:19;;;;;;;2.30;1.27;;;9.10;96.70;;;;;;5085817;28;20056;-76
2024/01/09 08:01:54;;;;;;;2.70;1.52;;;9.10;96.70;;;;;;5083960;28;20747;-75
2024/01/09 08:04:24;;;;;;;3.07;1.83;;;9.20;96.70;;;;;;5084836;28;20273;-76
2024/01/09 08:06:52;;;;;;;3.40;1.35;;;9.20;96.70;;;;;;5070741;28;20179;-76
2024/01/09 08:09:21;;;;;;;2.90;1.65;;;9.20;96.70;;;;;;5089089;28;20101;-76
2024/01/09 08:12:02;;;;;;;2.63;1.50;;;9.30;96.70;;;;;;5088239;28;20060;-73
2024/01/09 08:14:31;;;;;;;2.28;1.50;;;9.30;96.70;;;;;;5081572;28;20057;-73
2024/01/09 08:16:59;;;;;;;1.77;1.05;;;9.30;96.70;;;;;;5089062;28;20055;-73
2024/01/09 08:19:28;;;;;;;2.78;1.20;;;9.30;96.70;;;;;;5068502;28;20062;-74
2024/01/09 08:21:56;;;;;;;2.00;1.38;;;9.40;96.70;;;;;;5089269;28;20048;-77
2024/01/09 08:24:25;;;;;;;2.90;1.50;;;9.40;96.70;;;;;;5090448;28;20141;-76
2024/01/09 08:26:55;;;;;;;3.05;1.50;;;9.40;96.70;;;;;;5083271;28;20574;-76
2024/01/09 08:29:27;;;;;;;2.30;1.48;;;9.40;96.70;;;;;;5078566;28;20583;-76
2024/01/09 08:31:56;;;;;;;3.60;1.55;;;9.50;96.70;;;;;;5069781;28;20052;-76
2024/01/09 08:34:26;;;;;;;2.15;1.60;;;9.50;96.70;;;;;;5067166;28;20080;-76
2024/01/09 08:36:54;;;;;;;3.17;1.60;;;9.50;96.70;;;;;;5066646;28;20160;-76
2024/01/09 08:39:23;;;;;;;2.75;1.25;;;9.60;96.70;;;;;;5066619;28;20048;-76
2024/01/09 08:41:53;;;;;;;2.78;1.63;;;9.60;96.70;;;;;;5091374;28;20059;-76
2024/01/09 08:44:25;;;;;;;3.72;1.98;;;9.60;96.70;;;;;;5083173;28;20515;-76
2024/01/09 08:46:54;;;;;;;2.03;1.20;;;9.70;96.70;;;;;;5093944;28;20048;-76
2024/01/09 08:49:24;;;;;;;6.22;1.80;;;9.70;96.70;;;;;;5084205;28;20056;-76
2024/01/09 08:51:52;;;;;;;3.35;1.35;;;9.80;96.70;;;;;;5084165;28;20052;-75
2024/01/09 08:54:22;;;;;;;3.10;1.63;;;9.80;96.70;;;;;;5083393;28;20048;-75
2024/01/09 08:56:50;;;;;;;1.77;1.10;;;9.80;96.70;;;;;;5071897;28;20051;-75
2024/01/09 08:59:23;;;;;;;3.20;1.67;;;9.90;96.70;;;;;;5089253;28;20060;-74
2024/01/09 09:01:52;;;;;;;3.97;1.80;;;9.90;96.70;;;;;;5089418;28;20606;-74
2024/01/09 09:04:33;;;;;;;2.60;1.38;;;10.00;96.70;;;;;;5070808;28;20536;-74
2024/01/09 09:07:02;;;;;;;2.85;1.40;;;10.00;96.70;;;;;;5089413;28;20162;-74
2024/01/09 09:09:33;;;;;;;3.10;1.40;;;10.10;96.70;;;;;;5089458;28;20059;-74
2024/01/09 09:12:03;;;;;;;2.65;1.48;;;10.20;96.70;;;;;;5081821;28;20087;-74
2024/01/09 09:14:33;;;;;;;1.80;1.20;;;10.20;96.70;;;;;;5081806;28;20561;-75
2024/01/09 09:17:02;;;;;;;2.45;1.48;;;10.20;96.70;;;;;;5087644;28;20083;-74
2024/01/09 09:19:31;;;;;;;3.97;1.65;;;10.30;96.70;;;;;;5096052;28;20207;-74
2024/01/09 09:22:01;;;;;;;2.75;1.50;;;10.30;96.70;;;;;;5070280;28;20056;-75
2024/01/09 09:24:35;;;;;;;2.55;1.20;;;10.50;96.70;;;;;;5092176;28;20648;-75
2024/01/09 09:27:04;;;;;;;2.08;1.58;;;10.50;96.70;;;;;;5088125;28;20775;-74
2024/01/09 09:30:02;;;;;;;7.10;3.58;;;10.60;96.70;;;;;;5069736;28;20393;-76
2024/01/09 09:34:00;;;;;;;7.45;3.55;;;10.60;96.70;;;;;;5057844;28;20071;-77
2024/01/09 09:38:00;;;;;;;6.05;2.63;;;10.60;96.70;;;;;;5019264;28;20143;-76
2024/01/09 09:44:32;;;;;;;6.47;3.67;;;10.70;96.70;;;;;;5086690;28;20396;-76
2024/01/09 09:47:21;;;;;;;;;;;;;;;;;;;;;
2024/01/09 09:50:26;;;;;;;5.13;3.13;;;10.80;96.70;;;;;;5081562;28;20059;-74
2024/01/09 09:52:57;;;;;;;6.22;3.75;;;10.90;96.70;;;;;;5088146;28;20056;-75
2024/01/09 09:55:26;;;;;;;8.55;4.60;;;10.90;96.70;;;;;;5088817;28;20070;-75
2024/01/09 09:58:00;;;;;;;7.30;3.65;;;10.90;96.70;;;;;;5087078;28;20080;-74
2024/01/09 10:00:36;;;;;;;5.20;2.90;;;11.00;96.70;;;;;;5087825;28;20063;-74
2024/01/09 10:03:52;;;;;;;5.45;3.25;;;11.00;96.70;;;;;;5067634;28;20086;-75
2024/01/09 10:06:25;;;;;;;4.43;2.65;;;11.10;96.70;;;;;;5082767;28;20558;-74
2024/01/09 10:08:56;;;;;;;7.10;3.40;;;11.10;96.70;;;;;;5092283;28;20470;-75
2024/01/09 10:18:58;;;;;;;4.78;1.98;;;11.10;96.70;;;;;;5083765;28;20565;-75
2024/01/09 10:21:28;;;;;;;3.65;1.83;;;11.20;96.70;;;;;;5091762;28;20052;-74
2024/01/09 10:23:57;;;;;;;4.28;2.30;;;11.20;96.70;;;;;;5085113;28;20080;-75
2024/01/09 10:26:27;;;;;;;3.58;1.67;;;11.30;96.70;;;;;;5070684;28;20044;-77
2024/01/09 10:32:23;;;;;;;2.17;1.52;;;11.30;96.70;;;;;;5014872;28;20395;-75
2024/01/09 10:34:54;;;;;;;4.15;1.52;;;11.40;96.70;;;;;;5007372;28;20084;-75
2024/01/09 10:37:27;;;;;;;2.88;1.40;;;11.40;96.70;;;;;;5007921;28;20477;-76
2024/01/09 10:40:17;;;;;;;1.95;1.42;;;11.40;96.70;;;;;;5022756;28;20061;-75
2024/01/09 10:42:48;;;;;;;2.67;1.60;;;11.50;96.70;;;;;;4981990;28;20173;-76
2024/01/09 10:45:23;;;;;;;2.55;1.40;;;11.50;96.70;;;;;;5006604;28;20575;-75
2024/01/09 10:47:56;;;;;;;2.65;1.52;;;11.60;96.70;;;;;;5023547;28;20724;-75
2024/01/09 10:50:26;;;;;;;2.40;1.50;;;11.70;96.70;;;;;;5024151;28;20140;-76
2024/01/09 10:52:56;;;;;;;3.08;1.63;;;11.70;96.70;;;;;;5023880;28;20059;-77
2024/01/09 10:55:25;;;;;;;3.92;1.88;;;11.70;96.70;;;;;;5023898;28;20675;-77
2024/01/09 10:58:08;;;;;;;3.50;1.52;;;11.80;96.70;;;;;;5022775;28;20060;-76
2024/01/09 11:00:55;;;;;;;2.40;1.30;;;11.80;96.70;;;;;;4982904;28;20072;-75
2024/01/09 11:03:27;;;;;;;4.85;1.63;;;12.00;96.70;;;;;;5040428;28;20113;-75
2024/01/09 11:06:02;;;;;;;2.65;1.75;;;12.00;96.70;;;;;;5012316;28;20060;-77
2024/01/09 11:08:33;;;;;;;4.97;3.28;;;12.00;96.70;;;;;;5046384;28;20064;-76
2024/01/09 11:11:06;;;;;;;3.65;1.92;;;12.00;96.70;;;;;;5086596;28;20055;-76
2024/01/09 11:13:39;;;;;;;3.03;2.20;;;12.10;96.70;;;;;;5086303;28;20470;-76
2024/01/09 11:16:11;;;;;;;3.10;1.70;;;12.20;96.70;;;;;;5086212;28;20059;-77
2024/01/09 11:18:42;;;;;;;3.40;1.70;;;12.20;96.70;;;;;;5085856;28;20060;-76
2024/01/09 11:21:13;;;;;;;2.88;1.80;;;12.30;96.70;;;;;;5086342;28;20059;-76
2024/01/09 11:23:57;;;;;;;3.70;2.00;;;12.20;96.70;;;;;;5086274;28;20058;-76
2024/01/09 11:26:31;;;;;;;2.58;1.60;;;12.20;96.70;;;;;;5086261;28;20172;-77
2024/01/09 11:29:00;;;;;;;4.90;1.77;;;12.10;96.70;;;;;;5086088;28;20051;-76
2024/01/09 11:31:30;;;;;;;2.90;1.85;;;12.10;96.70;;;;;;5086197;28;20067;-76
2024/01/09 11:34:02;;;;;;;3.50;1.85;;;12.20;96.70;;;;;;5086039;28;20056;-77
2024/01/09 11:36:33;;;;;;;3.88;2.30;;;12.30;96.70;;;;;;5067746;28;20083;-77
2024/01/09 11:39:07;;;;;;;3.50;1.88;;;12.40;96.70;;;;;;5067781;28;20535;-76
2024/01/09 11:41:37;;;;;;;3.22;2.00;;;12.40;96.70;;;;;;5086304;28;20504;-77
2024/01/09 11:44:15;;;;;;;3.97;2.08;;;12.40;96.70;;;;;;5085567;28;20828;-77
2024/01/09 11:46:48;;;;;;;5.30;2.50;;;12.40;96.70;;;;;;5085193;28;20055;-77
2024/01/09 11:49:17;;;;;;;3.33;1.95;;;12.50;96.70;;;;;;5067211;28;20071;-77
2024/01/09 11:51:47;;;;;;;2.80;1.65;;;12.40;96.70;;;;;;5086431;28;20055;-77
2024/01/09 11:54:19;;;;;;;3.53;2.00;;;12.30;96.70;;;;;;5086248;28;20056;-78
2024/01/09 11:56:49;;;;;;;3.58;2.30;;;12.40;96.70;;;;;;5084776;28;20470;-77
2024/01/09 11:59:21;;;;;;;2.67;1.83;;;12.50;96.70;;;;;;5085385;28;20059;-77
2024/01/09 12:01:49;;;;;;;3.80;2.00;;;12.50;96.70;;;;;;5085495;28;20549;-76
2024/01/09 12:04:19;;;;;;;5.20;2.45;;;12.60;96.70;;;;;;5086085;28;20047;-77
2024/01/09 12:06:51;;;;;;;3.00;1.92;;;12.70;96.70;;;;;;5086276;28;20052;-77
2024/01/09 12:09:19;;;;;;;2.92;2.20;;;12.80;96.70;;;;;;5085548;28;20052;-77
2024/01/09 12:11:48;;;;;;;2.95;1.92;;;12.90;96.70;;;;;;5077645;28;20056;-77
2024/01/09 12:14:18;;;;;;;3.45;1.60;;;12.90;96.70;;;;;;5070036;28;20175;-75
2024/01/09 12:16:49;;;;;;;2.85;1.63;;;12.80;96.70;;;;;;5085201;28;20417;-76
2024/01/09 12:19:19;;;;;;;3.95;1.73;;;12.70;96.70;;;;;;5083103;28;20169;-76
2024/01/09 12:21:50;;;;;;;3.45;2.00;;;12.80;96.70;;;;;;5084706;28;20055;-77
2024/01/09 12:24:19;;;;;;;3.38;2.00;;;12.90;96.70;;;;;;5085484;28;20056;-77
2024/01/09 12:26:53;;;;;;;4.63;1.70;;;12.80;96.70;;;;;;5085200;28;20055;-76
2024/01/09 12:29:26;;;;;;;1.88;1.60;;;12.90;96.70;;;;;;5084344;28;20067;-76
2024/01/09 12:31:55;;;;;;;2.78;1.58;;;13.00;96.70;;;;;;5066346;28;20056;-76
2024/01/09 12:34:27;;;;;;;4.10;1.70;;;13.00;96.70;;;;;;5076162;28;20059;-76
2024/01/09 12:37:00;;;;;;;1.98;1.60;;;13.10;96.70;;;;;;5085192;28;20775;-75
2024/01/09 12:39:31;;;;;;;5.55;2.08;;;13.20;96.70;;;;;;5066744;28;20055;-76
2024/01/09 12:42:07;;;;;;;4.13;2.45;;;13.00;96.70;;;;;;5085082;28;20416;-77
2024/01/09 12:44:37;;;;;;;3.17;2.00;;;13.00;96.70;;;;;;5084084;28;20060;-77
2024/01/09 12:47:08;;;;;;;3.13;1.90;;;13.10;96.70;;;;;;5085177;28;20502;-76
2024/01/09 12:49:43;;;;;;;3.25;1.90;;;13.10;96.70;;;;;;5085564;28;20509;-76
2024/01/09 12:52:33;;;;;;;2.45;1.77;;;13.20;96.70;;;;;;5066066;28;20059;-76
2024/01/09 12:55:02;;;;;;;6.43;2.28;;;13.00;96.70;;;;;;5085440;28;20549;-77
2024/01/09 12:57:34;;;;;;;3.47;1.90;;;13.10;96.70;;;;;;5084491;28;20059;-76
2024/01/09 13:00:06;;;;;;;4.97;2.50;;;13.20;96.70;;;;;;5084519;28;20048;-77
2024/01/09 13:02:35;;;;;;;5.22;2.20;;;13.40;96.70;;;;;;5084786;28;20059;-76
2024/01/09 13:05:07;;;;;;;2.63;1.60;;;13.40;96.70;;;;;;5057614;28;20102;-76
2024/01/09 13:07:38;;;;;;;5.15;2.20;;;13.30;96.70;;;;;;5066042;28;20852;-76
2024/01/09 13:10:07;;;;;;;4.68;2.00;;;13.40;96.70;;;;;;5084805;28;20051;-76
2024/01/09 13:12:36;;;;;;;4.97;1.85;;;13.40;96.70;;;;;;5085473;28;20040;-76
2024/01/09 13:15:05;;;;;;;4.18;1.73;;;13.40;96.70;;;;;;5084390;28;20076;-76
2024/01/09 13:17:34;;;;;;;4.05;1.80;;;13.20;96.70;;;;;;5049411;28;20048;-76
2024/01/09 13:20:06;;;;;;;2.78;1.60;;;13.10;96.70;;;;;;5084312;28;20070;-76
2024/01/09 13:22:37;;;;;;;3.00;2.13;;;13.00;96.70;;;;;;5084813;28;20486;-76
2024/01/09 13:25:26;;;;;;;2.97;1.88;;;12.90;96.70;;;;;;5084747;28;20075;-76
2024/01/09 13:27:55;;;;;;;4.63;1.75;;;12.90;96.70;;;;;;5066820;28;20052;-76
2024/01/09 13:30:24;;;;;;;4.68;2.30;;;13.00;96.70;;;;;;5084778;28;20131;-77
2024/01/09 13:33:16;;;;;;;3.17;2.22;;;13.10;96.70;;;;;;5084935;28;20215;-76
2024/01/09 13:35:44;;;;;;;3.13;1.85;;;13.00;96.70;;;;;;5076785;28;20056;-77
2024/01/09 13:38:16;;;;;;;2.97;2.00;;;13.00;96.70;;;;;;5084644;28;20199;-77
2024/01/09 13:40:45;;;;;;;4.22;2.28;;;12.90;96.70;;;;;;5084963;28;20060;-76
2024/01/09 13:43:15;;;;;;;4.80;2.60;;;12.60;96.70;;;;;;5068839;28;20105;-76
2024/01/09 13:46:25;;;;;;;5.53;2.63;;;12.60;96.70;;;;;;5080900;28;20769;-76
2024/01/09 13:48:55;;;;;;;3.65;2.20;;;12.40;96.70;;;;;;5088372;28;20191;-76
2024/01/09 13:51:51;;;;;;;5.95;2.10;;;12.40;96.70;;;;;;5069616;28;20079;-76
2024/01/09 13:54:26;;;;;;;4.60;2.42;;;12.40;96.70;;;;;;5084321;28;20108;-76
2024/01/09 13:56:57;;;;;;;4.03;2.63;;;12.10;96.70;;;;;;5088189;28;20546;-75
2024/01/09 14:02:43;;;;;;;4.93;2.00;;;12.10;96.70;;;;;;5058923;28;20095;-75
2024/01/09 14:05:15;;;;;;;3.25;2.20;;;11.90;96.70;;;;;;5079862;28;20056;-76
2024/01/09 14:07:49;;;;;;;3.85;2.28;;;12.00;96.70;;;;;;5087695;28;20059;-75
2024/01/09 14:10:24;;;;;;;4.38;2.78;;;12.00;96.70;;;;;;5087761;28;20131;-75
2024/01/09 14:12:57;;;;;;;2.53;2.00;;;11.80;96.70;;;;;;5087213;28;20782;-75
2024/01/09 14:15:27;;;;;;;4.43;2.20;;;11.70;96.70;;;;;;5068442;28;20055;-75
2024/01/09 14:17:56;;;;;;;4.07;2.30;;;11.60;96.70;;;;;;5088171;28;20056;-75
2024/01/09 14:24:16;;;;;;;4.45;2.90;;;11.50;96.70;;;;;;5054952;28;20424;-75
2024/01/09 14:26:59;;;;;;;;;;;;;;;;;;;;;
2024/01/09 14:30:22;;;;;;;3.20;2.42;;;11.40;96.70;;;;;;5068808;28;20136;-75
2024/01/09 14:32:52;;;;;;;3.72;2.10;;;11.40;96.70;;;;;;5068864;28;20151;-75
2024/01/09 14:35:21;;;;;;;3.50;2.40;;;11.50;96.70;;;;;;5087323;28;20073;-75
2024/01/09 14:37:50;;;;;;;3.17;2.45;;;11.50;96.70;;;;;;5065165;28;20139;-75
2024/01/09 14:40:43;;;;;;;5.18;2.45;;;11.40;96.70;;;;;;5086726;28;20070;-75
2024/01/09 14:43:14;;;;;;;4.32;2.30;;;11.40;96.70;;;;;;5087224;28;20060;-75
2024/01/09 14:45:46;;;;;;;3.50;2.17;;;11.30;96.70;;;;;;5046341;28;20065;-75
2024/01/09 14:48:16;;;;;;;3.45;2.17;;;11.20;96.70;;;;;;5064180;28;20053;-75
2024/01/09 15:17:10;;;;;;;6.22;4.03;;;10.80;96.70;;;;;;5055085;28;20044;-75
2024/01/09 15:28:46;;;;;;;5.15;3.10;;;10.50;96.70;;;;;;5055352;28;20087;-75
2024/01/09 15:39:11;;;;;;;7.20;3.70;;;10.30;96.70;;;;;;4937420;29;20117;-75